sensor_id;sensor_type;location;lat;lon;timestamp;P1;durP1;ratioP1;P2;durP2;ratioP2
12884;SDS011;6510;51.362;7.370;2023-05-10T00:01:46;0.00;;;0.00;;
12884;SDS011;6510;51.362;7.370;2023-05-10T00:04:11;0.00;;;0.00;;
12884;SDS011;6510;51.362;7.370;2023-05-10T00:06:37;0.00;;;0.00;;
12884;SDS011;6510;51.362;7.370;2023-05-10T00:09:02;0.00;;;0.00;;
12884;SDS011;6510;51.362;7.370;2023-05-10T00:11:28;0.00;;;0.00;;
12884;SDS011;6510;51.362;7.370;2023-05-10T00:13:54;0.00;;;0.00;;
12884;SDS011;6510;51.362;7.370;2023-05-10T00:16:20;0.00;;;0.00;;
12884;SDS011;6510;51.362;7.370;2023-05-10T00:18:46;0.00;;;0.00;;
12884;SDS011;6510;51.362;7.370;2023-05-10T00:21:11;0.00;;;0.00;;
12884;SDS011;6510;51.362;7.370;2023-05-10T00:23:37;0.00;;;0.00;;
12884;SDS011;6510;51.362;7.370;2023-05-10T00:26:03;0.00;;;0.00;;
12884;SDS011;6510;51.362;7.370;2023-05-10T00:28:28;0.00;;;0.00;;
12884;SDS011;6510;51.362;7.370;2023-05-10T00:30:54;0.00;;;0.00;;
12884;SDS011;6510;51.362;7.370;2023-05-10T00:33:21;0.00;;;0.00;;
12884;SDS011;6510;51.362;7.370;2023-05-10T00:35:46;0.00;;;0.00;;
12884;SDS011;6510;51.362;7.370;2023-05-10T00:38:12;0.00;;;0.00;;
12884;SDS011;6510;51.362;7.370;2023-05-10T00:40:38;0.00;;;0.00;;
12884;SDS011;6510;51.362;7.370;2023-05-10T00:43:03;0.00;;;0.00;;
12884;SDS011;6510;51.362;7.370;2023-05-10T00:45:30;0.00;;;0.00;;
12884;SDS011;6510;51.362;7.370;2023-05-10T00:47:58;0.00;;;0.00;;
12884;SDS011;6510;51.362;7.370;2023-05-10T00:50:26;0.00;;;0.00;;
12884;SDS011;6510;51.362;7.370;2023-05-10T00:52:51;0.00;;;0.00;;
12884;SDS011;6510;51.362;7.370;2023-05-10T00:55:17;0.00;;;0.00;;
12884;SDS011;6510;51.362;7.370;2023-05-10T00:57:43;0.00;;;0.00;;
12884;SDS011;6510;51.362;7.370;2023-05-10T01:00:09;0.00;;;0.00;;
12884;SDS011;6510;51.362;7.370;2023-05-10T01:02:36;0.00;;;0.00;;
12884;SDS011;6510;51.362;7.370;2023-05-10T01:05:02;0.00;;;0.00;;
12884;SDS011;6510;51.362;7.370;2023-05-10T01:07:31;0.00;;;0.00;;
12884;SDS011;6510;51.362;7.370;2023-05-10T01:09:57;0.00;;;0.00;;
12884;SDS011;6510;51.362;7.370;2023-05-10T01:12:23;0.00;;;0.00;;
12884;SDS011;6510;51.362;7.370;2023-05-10T01:14:48;0.00;;;0.00;;
12884;SDS011;6510;51.362;7.370;2023-05-10T01:17:14;0.00;;;0.00;;
12884;SDS011;6510;51.362;7.370;2023-05-10T01:19:41;0.00;;;0.00;;
12884;SDS011;6510;51.362;7.370;2023-05-10T01:25:19;0.00;;;0.00;;
12884;SDS011;6510;51.362;7.370;2023-05-10T01:36:35;0.00;;;0.00;;
12884;SDS011;6510;51.362;7.370;2023-05-10T01:39:27;0.00;;;0.00;;
12884;SDS011;6510;51.362;7.370;2023-05-10T01:42:08;0.00;;;0.00;;
12884;SDS011;6510;51.362;7.370;2023-05-10T01:47:42;0.00;;;0.00;;
12884;SDS011;6510;51.362;7.370;2023-05-10T01:50:10;0.00;;;0.00;;
12884;SDS011;6510;51.362;7.370;2023-05-10T01:52:43;0.00;;;0.00;;
12884;SDS011;6510;51.362;7.370;2023-05-10T01:55:15;0.00;;;0.00;;
12884;SDS011;6510;51.362;7.370;2023-05-10T01:57:43;0.00;;;0.00;;
12884;SDS011;6510;51.362;7.370;2023-05-10T02:00:11;0.00;;;0.00;;
12884;SDS011;6510;51.362;7.370;2023-05-10T02:02:39;0.00;;;0.00;;
12884;SDS011;6510;51.362;7.370;2023-05-10T02:05:09;0.00;;;0.00;;
12884;SDS011;6510;51.362;7.370;2023-05-10T02:07:38;0.00;;;0.00;;
12884;SDS011;6510;51.362;7.370;2023-05-10T02:10:05;0.00;;;0.00;;
12884;SDS011;6510;51.362;7.370;2023-05-10T02:12:36;0.00;;;0.00;;
12884;SDS011;6510;51.362;7.370;2023-05-10T02:15:06;0.00;;;0.00;;
12884;SDS011;6510;51.362;7.370;2023-05-10T02:17:34;0.00;;;0.00;;
12884;SDS011;6510;51.362;7.370;2023-05-10T02:20:01;0.00;;;0.00;;
12884;SDS011;6510;51.362;7.370;2023-05-10T02:22:29;0.00;;;0.00;;
12884;SDS011;6510;51.362;7.370;2023-05-10T02:24:57;0.00;;;0.00;;
12884;SDS011;6510;51.362;7.370;2023-05-10T02:27:23;0.00;;;0.00;;
12884;SDS011;6510;51.362;7.370;2023-05-10T02:29:51;0.00;;;0.00;;
12884;SDS011;6510;51.362;7.370;2023-05-10T02:32:17;0.00;;;0.00;;
12884;SDS011;6510;51.362;7.370;2023-05-10T02:34:44;0.00;;;0.00;;
12884;SDS011;6510;51.362;7.370;2023-05-10T02:37:16;0.00;;;0.00;;
12884;SDS011;6510;51.362;7.370;2023-05-10T02:39:47;0.00;;;0.00;;
12884;SDS011;6510;51.362;7.370;2023-05-10T02:42:15;0.00;;;0.00;;
12884;SDS011;6510;51.362;7.370;2023-05-10T02:44:44;0.00;;;0.00;;
12884;SDS011;6510;51.362;7.370;2023-05-10T02:47:12;0.00;;;0.00;;
12884;SDS011;6510;51.362;7.370;2023-05-10T02:49:38;0.00;;;0.00;;
12884;SDS011;6510;51.362;7.370;2023-05-10T02:52:04;0.00;;;0.00;;
12884;SDS011;6510;51.362;7.370;2023-05-10T02:54:39;0.00;;;0.00;;
12884;SDS011;6510;51.362;7.370;2023-05-10T02:57:09;0.00;;;0.00;;
12884;SDS011;6510;51.362;7.370;2023-05-10T02:59:40;0.00;;;0.00;;
12884;SDS011;6510;51.362;7.370;2023-05-10T03:02:07;0.00;;;0.00;;
12884;SDS011;6510;51.362;7.370;2023-05-10T03:04:34;0.00;;;0.00;;
12884;SDS011;6510;51.362;7.370;2023-05-10T03:07:00;0.00;;;0.00;;
12884;SDS011;6510;51.362;7.370;2023-05-10T03:09:26;0.00;;;0.00;;
12884;SDS011;6510;51.362;7.370;2023-05-10T03:11:56;0.00;;;0.00;;
12884;SDS011;6510;51.362;7.370;2023-05-10T03:14:42;0.00;;;0.00;;
12884;SDS011;6510;51.362;7.370;2023-05-10T03:20:03;0.00;;;0.00;;
12884;SDS011;6510;51.362;7.370;2023-05-10T03:22:32;0.00;;;0.00;;
12884;SDS011;6510;51.362;7.370;2023-05-10T03:25:04;0.00;;;0.00;;
12884;SDS011;6510;51.362;7.370;2023-05-10T03:27:31;0.00;;;0.00;;
12884;SDS011;6510;51.362;7.370;2023-05-10T03:29:58;0.00;;;0.00;;
12884;SDS011;6510;51.362;7.370;2023-05-10T03:32:26;0.00;;;0.00;;
12884;SDS011;6510;51.362;7.370;2023-05-10T03:34:55;0.00;;;0.00;;
12884;SDS011;6510;51.362;7.370;2023-05-10T03:37:20;0.00;;;0.00;;
12884;SDS011;6510;51.362;7.370;2023-05-10T03:39:46;0.00;;;0.00;;
12884;SDS011;6510;51.362;7.370;2023-05-10T03:42:12;0.00;;;0.00;;
12884;SDS011;6510;51.362;7.370;2023-05-10T03:44:38;0.00;;;0.00;;
12884;SDS011;6510;51.362;7.370;2023-05-10T03:47:04;0.00;;;0.00;;
12884;SDS011;6510;51.362;7.370;2023-05-10T03:49:32;0.00;;;0.00;;
12884;SDS011;6510;51.362;7.370;2023-05-10T03:51:58;0.00;;;0.00;;
12884;SDS011;6510;51.362;7.370;2023-05-10T03:54:23;0.00;;;0.00;;
12884;SDS011;6510;51.362;7.370;2023-05-10T03:56:49;0.00;;;0.00;;
12884;SDS011;6510;51.362;7.370;2023-05-10T03:59:15;0.00;;;0.00;;
12884;SDS011;6510;51.362;7.370;2023-05-10T04:01:40;0.00;;;0.00;;
12884;SDS011;6510;51.362;7.370;2023-05-10T04:04:06;0.00;;;0.00;;
12884;SDS011;6510;51.362;7.370;2023-05-10T04:06:31;0.00;;;0.00;;
12884;SDS011;6510;51.362;7.370;2023-05-10T04:08:57;0.00;;;0.00;;
12884;SDS011;6510;51.362;7.370;2023-05-10T04:11:25;0.00;;;0.00;;
12884;SDS011;6510;51.362;7.370;2023-05-10T04:13:51;0.00;;;0.00;;
12884;SDS011;6510;51.362;7.370;2023-05-10T04:16:16;0.00;;;0.00;;
12884;SDS011;6510;51.362;7.370;2023-05-10T04:18:42;0.00;;;0.00;;
12884;SDS011;6510;51.362;7.370;2023-05-10T04:21:14;0.00;;;0.00;;
12884;SDS011;6510;51.362;7.370;2023-05-10T04:23:40;0.00;;;0.00;;
12884;SDS011;6510;51.362;7.370;2023-05-10T04:26:06;0.00;;;0.00;;
12884;SDS011;6510;51.362;7.370;2023-05-10T04:28:31;0.00;;;0.00;;
12884;SDS011;6510;51.362;7.370;2023-05-10T04:31:00;0.00;;;0.00;;
12884;SDS011;6510;51.362;7.370;2023-05-10T04:33:35;0.00;;;0.00;;
12884;SDS011;6510;51.362;7.370;2023-05-10T04:36:02;0.00;;;0.00;;
12884;SDS011;6510;51.362;7.370;2023-05-10T04:38:29;0.00;;;0.00;;
12884;SDS011;6510;51.362;7.370;2023-05-10T04:41:03;0.00;;;0.00;;
12884;SDS011;6510;51.362;7.370;2023-05-10T04:43:30;0.00;;;0.00;;
12884;SDS011;6510;51.362;7.370;2023-05-10T04:45:58;0.00;;;0.00;;
12884;SDS011;6510;51.362;7.370;2023-05-10T04:48:24;0.00;;;0.00;;
12884;SDS011;6510;51.362;7.370;2023-05-10T04:50:50;0.00;;;0.00;;
12884;SDS011;6510;51.362;7.370;2023-05-10T04:53:15;0.00;;;0.00;;
12884;SDS011;6510;51.362;7.370;2023-05-10T04:55:41;0.00;;;0.00;;
12884;SDS011;6510;51.362;7.370;2023-05-10T04:58:07;0.00;;;0.00;;
12884;SDS011;6510;51.362;7.370;2023-05-10T05:00:33;0.00;;;0.00;;
12884;SDS011;6510;51.362;7.370;2023-05-10T05:02:58;0.00;;;0.00;;
12884;SDS011;6510;51.362;7.370;2023-05-10T05:05:24;0.00;;;0.00;;
12884;SDS011;6510;51.362;7.370;2023-05-10T05:07:50;0.00;;;0.00;;
12884;SDS011;6510;51.362;7.370;2023-05-10T05:10:16;0.00;;;0.00;;
12884;SDS011;6510;51.362;7.370;2023-05-10T05:12:41;0.00;;;0.00;;
12884;SDS011;6510;51.362;7.370;2023-05-10T05:15:07;0.00;;;0.00;;
12884;SDS011;6510;51.362;7.370;2023-05-10T05:17:34;0.00;;;0.00;;
12884;SDS011;6510;51.362;7.370;2023-05-10T05:20:00;0.00;;;0.00;;
12884;SDS011;6510;51.362;7.370;2023-05-10T05:22:26;0.00;;;0.00;;
12884;SDS011;6510;51.362;7.370;2023-05-10T05:24:56;0.00;;;0.00;;
12884;SDS011;6510;51.362;7.370;2023-05-10T05:27:23;0.00;;;0.00;;
12884;SDS011;6510;51.362;7.370;2023-05-10T05:29:54;0.00;;;0.00;;
12884;SDS011;6510;51.362;7.370;2023-05-10T05:32:20;0.00;;;0.00;;
12884;SDS011;6510;51.362;7.370;2023-05-10T05:34:47;0.00;;;0.00;;
12884;SDS011;6510;51.362;7.370;2023-05-10T05:37:13;0.00;;;0.00;;
12884;SDS011;6510;51.362;7.370;2023-05-10T05:39:39;0.00;;;0.00;;
12884;SDS011;6510;51.362;7.370;2023-05-10T05:42:05;0.00;;;0.00;;
12884;SDS011;6510;51.362;7.370;2023-05-10T05:44:31;0.00;;;0.00;;
12884;SDS011;6510;51.362;7.370;2023-05-10T05:46:56;0.00;;;0.00;;
12884;SDS011;6510;51.362;7.370;2023-05-10T05:49:22;0.00;;;0.00;;
12884;SDS011;6510;51.362;7.370;2023-05-10T05:51:47;0.00;;;0.00;;
12884;SDS011;6510;51.362;7.370;2023-05-10T05:54:15;0.00;;;0.00;;
12884;SDS011;6510;51.362;7.370;2023-05-10T05:56:41;0.00;;;0.00;;
12884;SDS011;6510;51.362;7.370;2023-05-10T05:59:06;0.00;;;0.00;;
12884;SDS011;6510;51.362;7.370;2023-05-10T06:01:32;0.00;;;0.00;;
12884;SDS011;6510;51.362;7.370;2023-05-10T06:03:58;0.00;;;0.00;;
12884;SDS011;6510;51.362;7.370;2023-05-10T06:06:24;0.00;;;0.00;;
12884;SDS011;6510;51.362;7.370;2023-05-10T06:08:49;0.00;;;0.00;;
12884;SDS011;6510;51.362;7.370;2023-05-10T06:11:15;0.00;;;0.00;;
12884;SDS011;6510;51.362;7.370;2023-05-10T06:13:41;0.00;;;0.00;;
12884;SDS011;6510;51.362;7.370;2023-05-10T06:16:07;0.00;;;0.00;;
12884;SDS011;6510;51.362;7.370;2023-05-10T06:18:32;0.00;;;0.00;;
12884;SDS011;6510;51.362;7.370;2023-05-10T06:20:59;0.00;;;0.00;;
12884;SDS011;6510;51.362;7.370;2023-05-10T06:23:25;0.00;;;0.00;;
12884;SDS011;6510;51.362;7.370;2023-05-10T06:25:50;0.00;;;0.00;;
12884;SDS011;6510;51.362;7.370;2023-05-10T06:28:16;0.00;;;0.00;;
12884;SDS011;6510;51.362;7.370;2023-05-10T06:30:42;0.00;;;0.00;;
12884;SDS011;6510;51.362;7.370;2023-05-10T06:33:08;0.00;;;0.00;;
12884;SDS011;6510;51.362;7.370;2023-05-10T06:35:33;0.00;;;0.00;;
12884;SDS011;6510;51.362;7.370;2023-05-10T06:37:59;0.00;;;0.00;;
12884;SDS011;6510;51.362;7.370;2023-05-10T06:40:25;0.00;;;0.00;;
12884;SDS011;6510;51.362;7.370;2023-05-10T06:42:51;0.00;;;0.00;;
12884;SDS011;6510;51.362;7.370;2023-05-10T06:45:16;0.00;;;0.00;;
12884;SDS011;6510;51.362;7.370;2023-05-10T06:47:42;0.00;;;0.00;;
12884;SDS011;6510;51.362;7.370;2023-05-10T06:50:08;0.00;;;0.00;;
12884;SDS011;6510;51.362;7.370;2023-05-10T06:52:35;0.00;;;0.00;;
12884;SDS011;6510;51.362;7.370;2023-05-10T06:55:01;0.00;;;0.00;;
12884;SDS011;6510;51.362;7.370;2023-05-10T06:57:27;0.00;;;0.00;;
12884;SDS011;6510;51.362;7.370;2023-05-10T06:59:52;0.00;;;0.00;;
12884;SDS011;6510;51.362;7.370;2023-05-10T07:02:18;0.10;;;0.10;;
12884;SDS011;6510;51.362;7.370;2023-05-10T07:04:43;0.10;;;0.10;;
12884;SDS011;6510;51.362;7.370;2023-05-10T07:07:09;0.10;;;0.10;;
12884;SDS011;6510;51.362;7.370;2023-05-10T07:09:35;0.10;;;0.10;;
12884;SDS011;6510;51.362;7.370;2023-05-10T07:12:00;0.10;;;0.10;;
12884;SDS011;6510;51.362;7.370;2023-05-10T07:14:26;0.10;;;0.10;;
12884;SDS011;6510;51.362;7.370;2023-05-10T07:16:52;0.10;;;0.10;;
12884;SDS011;6510;51.362;7.370;2023-05-10T07:19:18;0.10;;;0.10;;
12884;SDS011;6510;51.362;7.370;2023-05-10T07:21:44;0.03;;;0.03;;
12884;SDS011;6510;51.362;7.370;2023-05-10T07:24:10;0.10;;;0.10;;
12884;SDS011;6510;51.362;7.370;2023-05-10T07:26:36;0.10;;;0.10;;
12884;SDS011;6510;51.362;7.370;2023-05-10T07:29:02;0.07;;;0.07;;
12884;SDS011;6510;51.362;7.370;2023-05-10T07:31:28;0.00;;;0.00;;
12884;SDS011;6510;51.362;7.370;2023-05-10T07:33:53;0.10;;;0.10;;
12884;SDS011;6510;51.362;7.370;2023-05-10T07:36:19;0.00;;;0.00;;
12884;SDS011;6510;51.362;7.370;2023-05-10T07:38:44;0.00;;;0.00;;
12884;SDS011;6510;51.362;7.370;2023-05-10T07:41:12;0.07;;;0.07;;
12884;SDS011;6510;51.362;7.370;2023-05-10T07:43:38;0.00;;;0.00;;
12884;SDS011;6510;51.362;7.370;2023-05-10T07:46:04;0.00;;;0.00;;
12884;SDS011;6510;51.362;7.370;2023-05-10T07:48:30;0.00;;;0.00;;
12884;SDS011;6510;51.362;7.370;2023-05-10T07:50:56;0.00;;;0.00;;
12884;SDS011;6510;51.362;7.370;2023-05-10T07:53:21;0.00;;;0.00;;
12884;SDS011;6510;51.362;7.370;2023-05-10T07:55:51;0.03;;;0.03;;
12884;SDS011;6510;51.362;7.370;2023-05-10T07:58:19;0.00;;;0.00;;
12884;SDS011;6510;51.362;7.370;2023-05-10T08:00:45;0.00;;;0.00;;
12884;SDS011;6510;51.362;7.370;2023-05-10T08:03:10;0.00;;;0.00;;
12884;SDS011;6510;51.362;7.370;2023-05-10T08:05:36;0.00;;;0.00;;
12884;SDS011;6510;51.362;7.370;2023-05-10T08:08:04;0.10;;;0.10;;
12884;SDS011;6510;51.362;7.370;2023-05-10T08:10:30;0.10;;;0.10;;
12884;SDS011;6510;51.362;7.370;2023-05-10T08:12:55;0.00;;;0.00;;
12884;SDS011;6510;51.362;7.370;2023-05-10T08:15:21;0.00;;;0.00;;
12884;SDS011;6510;51.362;7.370;2023-05-10T08:17:46;0.00;;;0.00;;
12884;SDS011;6510;51.362;7.370;2023-05-10T08:20:12;0.00;;;0.00;;
12884;SDS011;6510;51.362;7.370;2023-05-10T08:22:41;0.00;;;0.00;;
12884;SDS011;6510;51.362;7.370;2023-05-10T08:25:07;0.00;;;0.00;;
12884;SDS011;6510;51.362;7.370;2023-05-10T08:27:33;0.00;;;0.00;;
12884;SDS011;6510;51.362;7.370;2023-05-10T08:29:58;0.00;;;0.00;;
12884;SDS011;6510;51.362;7.370;2023-05-10T08:32:24;0.00;;;0.00;;
12884;SDS011;6510;51.362;7.370;2023-05-10T08:34:50;0.10;;;0.10;;
12884;SDS011;6510;51.362;7.370;2023-05-10T08:37:15;0.10;;;0.10;;
12884;SDS011;6510;51.362;7.370;2023-05-10T08:39:41;0.10;;;0.10;;
12884;SDS011;6510;51.362;7.370;2023-05-10T08:42:07;0.00;;;0.00;;
12884;SDS011;6510;51.362;7.370;2023-05-10T08:44:35;0.10;;;0.10;;
12884;SDS011;6510;51.362;7.370;2023-05-10T08:47:04;0.10;;;0.10;;
12884;SDS011;6510;51.362;7.370;2023-05-10T08:49:32;0.10;;;0.10;;
12884;SDS011;6510;51.362;7.370;2023-05-10T08:51:58;0.10;;;0.10;;
12884;SDS011;6510;51.362;7.370;2023-05-10T08:54:28;0.10;;;0.10;;
12884;SDS011;6510;51.362;7.370;2023-05-10T08:56:55;0.10;;;0.10;;
12884;SDS011;6510;51.362;7.370;2023-05-10T08:59:21;0.17;;;0.17;;
12884;SDS011;6510;51.362;7.370;2023-05-10T09:01:47;0.20;;;0.20;;
12884;SDS011;6510;51.362;7.370;2023-05-10T09:04:14;0.20;;;0.20;;
12884;SDS011;6510;51.362;7.370;2023-05-10T09:06:39;0.10;;;0.10;;
12884;SDS011;6510;51.362;7.370;2023-05-10T09:09:06;0.10;;;0.10;;
12884;SDS011;6510;51.362;7.370;2023-05-10T09:11:32;0.10;;;0.10;;
12884;SDS011;6510;51.362;7.370;2023-05-10T09:13:57;0.10;;;0.10;;
12884;SDS011;6510;51.362;7.370;2023-05-10T09:16:23;0.10;;;0.10;;
12884;SDS011;6510;51.362;7.370;2023-05-10T09:18:49;0.00;;;0.00;;
12884;SDS011;6510;51.362;7.370;2023-05-10T09:21:15;0.10;;;0.10;;
12884;SDS011;6510;51.362;7.370;2023-05-10T09:23:44;0.10;;;0.10;;
12884;SDS011;6510;51.362;7.370;2023-05-10T09:26:11;0.10;;;0.10;;
12884;SDS011;6510;51.362;7.370;2023-05-10T09:31:20;0.00;;;0.00;;
12884;SDS011;6510;51.362;7.370;2023-05-10T09:33:46;0.10;;;0.10;;
12884;SDS011;6510;51.362;7.370;2023-05-10T09:36:13;0.10;;;0.10;;
12884;SDS011;6510;51.362;7.370;2023-05-10T09:38:46;0.10;;;0.10;;
12884;SDS011;6510;51.362;7.370;2023-05-10T09:41:19;0.10;;;0.10;;
12884;SDS011;6510;51.362;7.370;2023-05-10T09:43:46;0.20;;;0.20;;
12884;SDS011;6510;51.362;7.370;2023-05-10T09:46:12;0.15;;;0.15;;
12884;SDS011;6510;51.362;7.370;2023-05-10T09:48:40;0.20;;;0.20;;
12884;SDS011;6510;51.362;7.370;2023-05-10T09:51:20;0.20;;;0.20;;
12884;SDS011;6510;51.362;7.370;2023-05-10T09:53:47;0.13;;;0.13;;
12884;SDS011;6510;51.362;7.370;2023-05-10T09:56:32;0.10;;;0.10;;
12884;SDS011;6510;51.362;7.370;2023-05-10T09:59:02;0.10;;;0.10;;
12884;SDS011;6510;51.362;7.370;2023-05-10T10:01:28;0.10;;;0.10;;
12884;SDS011;6510;51.362;7.370;2023-05-10T10:03:55;0.10;;;0.10;;
12884;SDS011;6510;51.362;7.370;2023-05-10T10:06:22;0.10;;;0.10;;
12884;SDS011;6510;51.362;7.370;2023-05-10T10:08:48;0.10;;;0.10;;
12884;SDS011;6510;51.362;7.370;2023-05-10T10:11:15;0.10;;;0.10;;
12884;SDS011;6510;51.362;7.370;2023-05-10T10:13:41;0.10;;;0.10;;
12884;SDS011;6510;51.362;7.370;2023-05-10T10:16:07;0.10;;;0.10;;
12884;SDS011;6510;51.362;7.370;2023-05-10T10:18:33;0.10;;;0.10;;
12884;SDS011;6510;51.362;7.370;2023-05-10T10:21:04;0.10;;;0.10;;
12884;SDS011;6510;51.362;7.370;2023-05-10T10:23:34;0.17;;;0.17;;
12884;SDS011;6510;51.362;7.370;2023-05-10T10:26:00;0.10;;;0.10;;
12884;SDS011;6510;51.362;7.370;2023-05-10T10:31:18;0.10;;;0.10;;
12884;SDS011;6510;51.362;7.370;2023-05-10T10:34:10;0.10;;;0.10;;
12884;SDS011;6510;51.362;7.370;2023-05-10T10:36:53;0.10;;;0.10;;
12884;SDS011;6510;51.362;7.370;2023-05-10T10:39:20;0.10;;;0.10;;
12884;SDS011;6510;51.362;7.370;2023-05-10T10:41:50;0.10;;;0.10;;
12884;SDS011;6510;51.362;7.370;2023-05-10T10:54:52;0.10;;;0.10;;
12884;SDS011;6510;51.362;7.370;2023-05-10T10:57:18;0.10;;;0.10;;
12884;SDS011;6510;51.362;7.370;2023-05-10T10:59:46;0.10;;;0.10;;
12884;SDS011;6510;51.362;7.370;2023-05-10T11:02:46;0.10;;;0.10;;
12884;SDS011;6510;51.362;7.370;2023-05-10T11:05:22;0.10;;;0.10;;
12884;SDS011;6510;51.362;7.370;2023-05-10T11:07:52;0.10;;;0.10;;
12884;SDS011;6510;51.362;7.370;2023-05-10T11:10:25;0.10;;;0.10;;
12884;SDS011;6510;51.362;7.370;2023-05-10T11:13:04;0.10;;;0.10;;
12884;SDS011;6510;51.362;7.370;2023-05-10T11:15:32;0.10;;;0.10;;
12884;SDS011;6510;51.362;7.370;2023-05-10T11:17:59;0.03;;;0.03;;
12884;SDS011;6510;51.362;7.370;2023-05-10T11:20:40;0.10;;;0.10;;
12884;SDS011;6510;51.362;7.370;2023-05-10T11:23:13;0.10;;;0.10;;
12884;SDS011;6510;51.362;7.370;2023-05-10T11:25:43;0.10;;;0.10;;
12884;SDS011;6510;51.362;7.370;2023-05-10T11:28:10;0.10;;;0.10;;
12884;SDS011;6510;51.362;7.370;2023-05-10T11:30:40;0.10;;;0.10;;
12884;SDS011;6510;51.362;7.370;2023-05-10T11:33:07;0.10;;;0.10;;
12884;SDS011;6510;51.362;7.370;2023-05-10T11:35:39;0.10;;;0.10;;
12884;SDS011;6510;51.362;7.370;2023-05-10T11:38:06;0.10;;;0.10;;
12884;SDS011;6510;51.362;7.370;2023-05-10T11:40:32;0.10;;;0.10;;
12884;SDS011;6510;51.362;7.370;2023-05-10T11:42:58;0.10;;;0.10;;
12884;SDS011;6510;51.362;7.370;2023-05-10T11:45:24;0.20;;;0.20;;
12884;SDS011;6510;51.362;7.370;2023-05-10T11:47:51;0.10;;;0.10;;
12884;SDS011;6510;51.362;7.370;2023-05-10T11:50:17;0.10;;;0.10;;
12884;SDS011;6510;51.362;7.370;2023-05-10T11:52:43;0.10;;;0.10;;
12884;SDS011;6510;51.362;7.370;2023-05-10T11:55:08;0.10;;;0.10;;
12884;SDS011;6510;51.362;7.370;2023-05-10T11:57:34;0.10;;;0.10;;
12884;SDS011;6510;51.362;7.370;2023-05-10T12:00:00;0.10;;;0.10;;
12884;SDS011;6510;51.362;7.370;2023-05-10T12:02:28;0.10;;;0.10;;
12884;SDS011;6510;51.362;7.370;2023-05-10T12:04:55;0.10;;;0.10;;
12884;SDS011;6510;51.362;7.370;2023-05-10T12:07:21;0.10;;;0.10;;
12884;SDS011;6510;51.362;7.370;2023-05-10T12:10:03;0.10;;;0.10;;
12884;SDS011;6510;51.362;7.370;2023-05-10T12:12:39;0.10;;;0.10;;
12884;SDS011;6510;51.362;7.370;2023-05-10T12:15:10;0.17;;;0.17;;
12884;SDS011;6510;51.362;7.370;2023-05-10T12:17:43;0.10;;;0.10;;
12884;SDS011;6510;51.362;7.370;2023-05-10T12:20:19;0.10;;;0.10;;
12884;SDS011;6510;51.362;7.370;2023-05-10T12:22:47;0.10;;;0.10;;
12884;SDS011;6510;51.362;7.370;2023-05-10T12:25:17;0.10;;;0.10;;
12884;SDS011;6510;51.362;7.370;2023-05-10T12:27:56;0.10;;;0.10;;
12884;SDS011;6510;51.362;7.370;2023-05-10T12:30:26;0.10;;;0.10;;
12884;SDS011;6510;51.362;7.370;2023-05-10T12:32:52;0.10;;;0.10;;
12884;SDS011;6510;51.362;7.370;2023-05-10T12:35:19;0.10;;;0.10;;
12884;SDS011;6510;51.362;7.370;2023-05-10T12:37:50;0.10;;;0.10;;
12884;SDS011;6510;51.362;7.370;2023-05-10T12:40:16;0.10;;;0.10;;
12884;SDS011;6510;51.362;7.370;2023-05-10T12:42:42;0.10;;;0.10;;
12884;SDS011;6510;51.362;7.370;2023-05-10T12:45:09;0.10;;;0.10;;
12884;SDS011;6510;51.362;7.370;2023-05-10T12:47:35;0.10;;;0.10;;
12884;SDS011;6510;51.362;7.370;2023-05-10T12:50:01;0.10;;;0.10;;
12884;SDS011;6510;51.362;7.370;2023-05-10T12:52:28;0.10;;;0.10;;
12884;SDS011;6510;51.362;7.370;2023-05-10T12:54:53;0.10;;;0.10;;
12884;SDS011;6510;51.362;7.370;2023-05-10T12:57:20;0.10;;;0.10;;
12884;SDS011;6510;51.362;7.370;2023-05-10T12:59:45;0.10;;;0.10;;
12884;SDS011;6510;51.362;7.370;2023-05-10T13:02:11;0.10;;;0.10;;
12884;SDS011;6510;51.362;7.370;2023-05-10T13:04:37;0.10;;;0.10;;
12884;SDS011;6510;51.362;7.370;2023-05-10T13:07:05;0.10;;;0.10;;
12884;SDS011;6510;51.362;7.370;2023-05-10T13:09:34;0.10;;;0.10;;
12884;SDS011;6510;51.362;7.370;2023-05-10T13:11:59;0.10;;;0.10;;
12884;SDS011;6510;51.362;7.370;2023-05-10T13:14:25;0.10;;;0.10;;
12884;SDS011;6510;51.362;7.370;2023-05-10T13:16:51;0.10;;;0.10;;
12884;SDS011;6510;51.362;7.370;2023-05-10T13:19:17;0.10;;;0.10;;
12884;SDS011;6510;51.362;7.370;2023-05-10T13:21:43;0.10;;;0.10;;
12884;SDS011;6510;51.362;7.370;2023-05-10T13:24:12;0.10;;;0.10;;
12884;SDS011;6510;51.362;7.370;2023-05-10T13:26:42;0.10;;;0.10;;
12884;SDS011;6510;51.362;7.370;2023-05-10T13:29:08;0.10;;;0.10;;
12884;SDS011;6510;51.362;7.370;2023-05-10T13:31:34;0.10;;;0.10;;
12884;SDS011;6510;51.362;7.370;2023-05-10T13:34:00;0.10;;;0.10;;
12884;SDS011;6510;51.362;7.370;2023-05-10T13:36:27;0.10;;;0.10;;
12884;SDS011;6510;51.362;7.370;2023-05-10T13:38:52;0.10;;;0.10;;
12884;SDS011;6510;51.362;7.370;2023-05-10T13:41:18;0.10;;;0.10;;
12884;SDS011;6510;51.362;7.370;2023-05-10T13:43:44;0.10;;;0.10;;
12884;SDS011;6510;51.362;7.370;2023-05-10T13:46:09;0.10;;;0.10;;
12884;SDS011;6510;51.362;7.370;2023-05-10T13:48:35;0.10;;;0.10;;
12884;SDS011;6510;51.362;7.370;2023-05-10T13:51:02;0.10;;;0.10;;
12884;SDS011;6510;51.362;7.370;2023-05-10T13:53:27;0.10;;;0.10;;
12884;SDS011;6510;51.362;7.370;2023-05-10T13:55:53;0.10;;;0.10;;
12884;SDS011;6510;51.362;7.370;2023-05-10T13:58:19;0.10;;;0.10;;
12884;SDS011;6510;51.362;7.370;2023-05-10T14:00:44;0.10;;;0.10;;
12884;SDS011;6510;51.362;7.370;2023-05-10T14:03:10;0.10;;;0.10;;
12884;SDS011;6510;51.362;7.370;2023-05-10T14:05:36;0.10;;;0.10;;
12884;SDS011;6510;51.362;7.370;2023-05-10T14:08:01;0.10;;;0.10;;
12884;SDS011;6510;51.362;7.370;2023-05-10T14:10:27;0.10;;;0.10;;
12884;SDS011;6510;51.362;7.370;2023-05-10T14:12:53;0.10;;;0.10;;
12884;SDS011;6510;51.362;7.370;2023-05-10T14:15:18;0.10;;;0.10;;
12884;SDS011;6510;51.362;7.370;2023-05-10T14:17:44;0.10;;;0.10;;
12884;SDS011;6510;51.362;7.370;2023-05-10T14:20:10;0.10;;;0.10;;
12884;SDS011;6510;51.362;7.370;2023-05-10T14:22:36;0.10;;;0.10;;
12884;SDS011;6510;51.362;7.370;2023-05-10T14:25:01;0.10;;;0.10;;
12884;SDS011;6510;51.362;7.370;2023-05-10T14:27:27;0.10;;;0.10;;
12884;SDS011;6510;51.362;7.370;2023-05-10T14:29:53;0.10;;;0.10;;
12884;SDS011;6510;51.362;7.370;2023-05-10T14:32:19;0.20;;;0.20;;
12884;SDS011;6510;51.362;7.370;2023-05-10T14:34:44;0.20;;;0.20;;
12884;SDS011;6510;51.362;7.370;2023-05-10T14:37:11;0.17;;;0.17;;
12884;SDS011;6510;51.362;7.370;2023-05-10T14:39:38;0.20;;;0.20;;
12884;SDS011;6510;51.362;7.370;2023-05-10T14:42:05;0.10;;;0.10;;
12884;SDS011;6510;51.362;7.370;2023-05-10T14:44:30;0.10;;;0.10;;
12884;SDS011;6510;51.362;7.370;2023-05-10T14:46:56;0.10;;;0.10;;
12884;SDS011;6510;51.362;7.370;2023-05-10T14:49:22;0.10;;;0.10;;
12884;SDS011;6510;51.362;7.370;2023-05-10T14:51:49;0.10;;;0.10;;
12884;SDS011;6510;51.362;7.370;2023-05-10T14:54:15;0.10;;;0.10;;
12884;SDS011;6510;51.362;7.370;2023-05-10T14:56:40;0.10;;;0.10;;
12884;SDS011;6510;51.362;7.370;2023-05-10T14:59:07;0.17;;;0.17;;
12884;SDS011;6510;51.362;7.370;2023-05-10T15:01:33;0.10;;;0.10;;
12884;SDS011;6510;51.362;7.370;2023-05-10T15:04:02;0.10;;;0.10;;
12884;SDS011;6510;51.362;7.370;2023-05-10T15:06:31;0.10;;;0.10;;
12884;SDS011;6510;51.362;7.370;2023-05-10T15:08:57;0.10;;;0.10;;
12884;SDS011;6510;51.362;7.370;2023-05-10T15:11:23;0.10;;;0.10;;
12884;SDS011;6510;51.362;7.370;2023-05-10T15:13:49;0.10;;;0.10;;
12884;SDS011;6510;51.362;7.370;2023-05-10T15:16:14;0.10;;;0.10;;
12884;SDS011;6510;51.362;7.370;2023-05-10T15:18:40;0.10;;;0.10;;
12884;SDS011;6510;51.362;7.370;2023-05-10T15:21:05;0.20;;;0.20;;
12884;SDS011;6510;51.362;7.370;2023-05-10T15:23:31;0.10;;;0.10;;
12884;SDS011;6510;51.362;7.370;2023-05-10T15:25:57;0.10;;;0.10;;
12884;SDS011;6510;51.362;7.370;2023-05-10T15:28:22;0.10;;;0.10;;
12884;SDS011;6510;51.362;7.370;2023-05-10T15:30:48;0.10;;;0.10;;
12884;SDS011;6510;51.362;7.370;2023-05-10T15:33:14;0.10;;;0.10;;
12884;SDS011;6510;51.362;7.370;2023-05-10T15:35:39;0.10;;;0.10;;